sensor_id;sensor_type;location;lat;lon;timestamp;P1;durP1;ratioP1;P2;durP2;ratioP2
3789;SDS011;1910;49.042;9.028;2022-08-26T00:01:22;6.43;;;5.70;;
3789;SDS011;1910;49.042;9.028;2022-08-26T00:03:48;5.10;;;4.60;;
3789;SDS011;1910;49.042;9.028;2022-08-26T00:06:14;8.43;;;5.53;;
3789;SDS011;1910;49.042;9.028;2022-08-26T00:08:40;6.17;;;5.57;;
3789;SDS011;1910;49.042;9.028;2022-08-26T00:11:07;9.57;;;6.10;;
3789;SDS011;1910;49.042;9.028;2022-08-26T00:13:33;6.47;;;5.73;;
3789;SDS011;1910;49.042;9.028;2022-08-26T00:16:00;6.07;;;5.03;;
3789;SDS011;1910;49.042;9.028;2022-08-26T00:18:27;7.33;;;5.23;;
3789;SDS011;1910;49.042;9.028;2022-08-26T00:20:53;6.43;;;5.47;;
3789;SDS011;1910;49.042;9.028;2022-08-26T00:23:18;6.97;;;6.27;;
3789;SDS011;1910;49.042;9.028;2022-08-26T00:25:44;6.53;;;5.83;;
3789;SDS011;1910;49.042;9.028;2022-08-26T00:28:10;7.53;;;6.40;;
3789;SDS011;1910;49.042;9.028;2022-08-26T00:30:36;11.90;;;7.63;;
3789;SDS011;1910;49.042;9.028;2022-08-26T00:33:02;10.80;;;7.43;;
3789;SDS011;1910;49.042;9.028;2022-08-26T00:35:30;7.13;;;6.27;;
3789;SDS011;1910;49.042;9.028;2022-08-26T00:37:57;9.90;;;7.97;;
3789;SDS011;1910;49.042;9.028;2022-08-26T00:40:28;10.40;;;6.27;;
3789;SDS011;1910;49.042;9.028;2022-08-26T00:42:57;9.93;;;7.50;;
3789;SDS011;1910;49.042;9.028;2022-08-26T00:45:22;10.43;;;7.20;;
3789;SDS011;1910;49.042;9.028;2022-08-26T00:47:51;9.40;;;6.50;;
3789;SDS011;1910;49.042;9.028;2022-08-26T00:50:28;7.30;;;5.47;;
3789;SDS011;1910;49.042;9.028;2022-08-26T00:52:58;7.70;;;6.90;;
3789;SDS011;1910;49.042;9.028;2022-08-26T00:58:00;7.50;;;5.03;;
3789;SDS011;1910;49.042;9.028;2022-08-26T01:00:28;7.93;;;6.60;;
3789;SDS011;1910;49.042;9.028;2022-08-26T01:02:55;8.93;;;5.73;;
3789;SDS011;1910;49.042;9.028;2022-08-26T01:05:25;18.07;;;7.13;;
3789;SDS011;1910;49.042;9.028;2022-08-26T01:07:51;9.23;;;5.87;;
3789;SDS011;1910;49.042;9.028;2022-08-26T01:10:18;13.37;;;6.13;;
3789;SDS011;1910;49.042;9.028;2022-08-26T01:12:47;7.77;;;6.30;;
3789;SDS011;1910;49.042;9.028;2022-08-26T01:15:24;9.60;;;6.03;;
3789;SDS011;1910;49.042;9.028;2022-08-26T01:17:55;10.47;;;6.63;;
3789;SDS011;1910;49.042;9.028;2022-08-26T01:20:25;10.37;;;6.10;;
3789;SDS011;1910;49.042;9.028;2022-08-26T01:25:26;11.90;;;7.33;;
3789;SDS011;1910;49.042;9.028;2022-08-26T01:27:54;7.67;;;6.10;;
3789;SDS011;1910;49.042;9.028;2022-08-26T01:30:25;7.77;;;6.17;;
3789;SDS011;1910;49.042;9.028;2022-08-26T01:32:51;7.03;;;5.97;;
3789;SDS011;1910;49.042;9.028;2022-08-26T01:35:20;10.70;;;7.60;;
3789;SDS011;1910;49.042;9.028;2022-08-26T01:37:46;6.80;;;6.07;;
3789;SDS011;1910;49.042;9.028;2022-08-26T01:40:15;10.23;;;7.13;;
3789;SDS011;1910;49.042;9.028;2022-08-26T01:42:44;9.90;;;7.57;;
3789;SDS011;1910;49.042;9.028;2022-08-26T01:45:14;9.07;;;6.97;;
3789;SDS011;1910;49.042;9.028;2022-08-26T01:47:43;8.40;;;6.53;;
3789;SDS011;1910;49.042;9.028;2022-08-26T01:50:16;6.03;;;5.43;;
3789;SDS011;1910;49.042;9.028;2022-08-26T01:52:45;7.83;;;7.07;;
3789;SDS011;1910;49.042;9.028;2022-08-26T01:55:13;9.63;;;7.63;;
3789;SDS011;1910;49.042;9.028;2022-08-26T01:57:41;8.27;;;7.00;;
3789;SDS011;1910;49.042;9.028;2022-08-26T02:00:08;10.73;;;7.57;;
3789;SDS011;1910;49.042;9.028;2022-08-26T02:02:37;7.17;;;6.47;;
3789;SDS011;1910;49.042;9.028;2022-08-26T02:05:04;14.13;;;7.63;;
3789;SDS011;1910;49.042;9.028;2022-08-26T02:07:33;11.73;;;7.27;;
3789;SDS011;1910;49.042;9.028;2022-08-26T02:09:59;13.03;;;6.33;;
3789;SDS011;1910;49.042;9.028;2022-08-26T02:12:24;8.20;;;7.20;;
3789;SDS011;1910;49.042;9.028;2022-08-26T02:14:51;7.90;;;7.03;;
3789;SDS011;1910;49.042;9.028;2022-08-26T02:17:20;8.10;;;6.57;;
3789;SDS011;1910;49.042;9.028;2022-08-26T02:19:50;15.03;;;7.60;;
3789;SDS011;1910;49.042;9.028;2022-08-26T02:22:20;9.73;;;8.10;;
3789;SDS011;1910;49.042;9.028;2022-08-26T02:24:48;12.87;;;8.57;;
3789;SDS011;1910;49.042;9.028;2022-08-26T02:27:16;11.20;;;8.23;;
3789;SDS011;1910;49.042;9.028;2022-08-26T02:29:46;9.97;;;7.63;;
3789;SDS011;1910;49.042;9.028;2022-08-26T02:32:15;9.97;;;8.50;;
3789;SDS011;1910;49.042;9.028;2022-08-26T02:34:40;9.10;;;7.33;;
3789;SDS011;1910;49.042;9.028;2022-08-26T02:37:07;9.60;;;7.33;;
3789;SDS011;1910;49.042;9.028;2022-08-26T02:39:35;8.70;;;7.00;;
3789;SDS011;1910;49.042;9.028;2022-08-26T02:42:02;13.03;;;8.00;;
3789;SDS011;1910;49.042;9.028;2022-08-26T02:44:29;8.00;;;7.20;;
3789;SDS011;1910;49.042;9.028;2022-08-26T02:46:55;9.40;;;7.83;;
3789;SDS011;1910;49.042;9.028;2022-08-26T02:49:21;11.20;;;8.50;;
3789;SDS011;1910;49.042;9.028;2022-08-26T02:51:48;8.97;;;7.90;;
3789;SDS011;1910;49.042;9.028;2022-08-26T02:54:14;13.60;;;8.83;;
3789;SDS011;1910;49.042;9.028;2022-08-26T02:56:41;11.90;;;8.53;;
3789;SDS011;1910;49.042;9.028;2022-08-26T02:59:07;13.37;;;8.50;;
3789;SDS011;1910;49.042;9.028;2022-08-26T03:01:34;9.57;;;8.10;;
3789;SDS011;1910;49.042;9.028;2022-08-26T03:04:00;11.60;;;8.67;;
3789;SDS011;1910;49.042;9.028;2022-08-26T03:06:27;10.90;;;8.73;;
3789;SDS011;1910;49.042;9.028;2022-08-26T03:08:53;10.27;;;8.93;;
3789;SDS011;1910;49.042;9.028;2022-08-26T03:11:19;10.73;;;8.87;;
3789;SDS011;1910;49.042;9.028;2022-08-26T03:13:46;10.67;;;9.20;;
3789;SDS011;1910;49.042;9.028;2022-08-26T03:16:11;12.87;;;9.47;;
3789;SDS011;1910;49.042;9.028;2022-08-26T03:18:37;9.80;;;8.10;;
3789;SDS011;1910;49.042;9.028;2022-08-26T03:21:04;10.97;;;8.50;;
3789;SDS011;1910;49.042;9.028;2022-08-26T03:23:32;10.63;;;8.07;;
3789;SDS011;1910;49.042;9.028;2022-08-26T03:25:57;9.70;;;8.10;;
3789;SDS011;1910;49.042;9.028;2022-08-26T03:28:23;15.37;;;8.33;;
3789;SDS011;1910;49.042;9.028;2022-08-26T03:30:48;9.77;;;7.93;;
3789;SDS011;1910;49.042;9.028;2022-08-26T03:33:14;11.37;;;7.87;;
3789;SDS011;1910;49.042;9.028;2022-08-26T03:35:40;11.40;;;8.00;;
3789;SDS011;1910;49.042;9.028;2022-08-26T03:38:08;13.93;;;9.10;;
3789;SDS011;1910;49.042;9.028;2022-08-26T03:40:35;12.93;;;9.43;;
3789;SDS011;1910;49.042;9.028;2022-08-26T03:43:02;11.40;;;8.57;;
3789;SDS011;1910;49.042;9.028;2022-08-26T03:45:30;12.20;;;8.70;;
3789;SDS011;1910;49.042;9.028;2022-08-26T03:47:56;14.93;;;8.70;;
3789;SDS011;1910;49.042;9.028;2022-08-26T03:50:22;16.37;;;8.27;;
3789;SDS011;1910;49.042;9.028;2022-08-26T03:52:48;15.20;;;8.53;;
3789;SDS011;1910;49.042;9.028;2022-08-26T03:55:15;12.00;;;8.83;;
3789;SDS011;1910;49.042;9.028;2022-08-26T03:57:42;10.73;;;8.03;;
3789;SDS011;1910;49.042;9.028;2022-08-26T04:00:09;11.77;;;9.30;;
3789;SDS011;1910;49.042;9.028;2022-08-26T04:02:43;11.60;;;9.00;;
3789;SDS011;1910;49.042;9.028;2022-08-26T04:05:10;20.00;;;9.50;;
3789;SDS011;1910;49.042;9.028;2022-08-26T04:07:37;16.90;;;9.97;;
3789;SDS011;1910;49.042;9.028;2022-08-26T04:10:04;12.73;;;10.00;;
3789;SDS011;1910;49.042;9.028;2022-08-26T04:12:29;11.03;;;9.13;;
3789;SDS011;1910;49.042;9.028;2022-08-26T04:14:55;15.03;;;10.10;;
3789;SDS011;1910;49.042;9.028;2022-08-26T04:17:21;13.30;;;9.43;;
3789;SDS011;1910;49.042;9.028;2022-08-26T04:19:49;14.30;;;9.40;;
3789;SDS011;1910;49.042;9.028;2022-08-26T04:22:15;15.90;;;9.43;;
3789;SDS011;1910;49.042;9.028;2022-08-26T04:24:42;15.43;;;10.57;;
3789;SDS011;1910;49.042;9.028;2022-08-26T04:27:08;14.50;;;10.30;;
3789;SDS011;1910;49.042;9.028;2022-08-26T04:29:34;24.63;;;11.90;;
3789;SDS011;1910;49.042;9.028;2022-08-26T04:32:00;12.90;;;10.03;;
3789;SDS011;1910;49.042;9.028;2022-08-26T04:34:27;16.13;;;12.40;;
3789;SDS011;1910;49.042;9.028;2022-08-26T04:36:53;17.63;;;9.50;;
3789;SDS011;1910;49.042;9.028;2022-08-26T04:39:19;13.90;;;10.63;;
3789;SDS011;1910;49.042;9.028;2022-08-26T04:41:46;15.37;;;9.73;;
3789;SDS011;1910;49.042;9.028;2022-08-26T04:44:12;19.10;;;10.83;;
3789;SDS011;1910;49.042;9.028;2022-08-26T04:46:38;14.07;;;9.90;;
3789;SDS011;1910;49.042;9.028;2022-08-26T04:49:04;16.20;;;10.27;;
3789;SDS011;1910;49.042;9.028;2022-08-26T04:51:32;11.47;;;9.17;;
3789;SDS011;1910;49.042;9.028;2022-08-26T04:53:59;17.13;;;9.70;;
3789;SDS011;1910;49.042;9.028;2022-08-26T04:56:25;12.43;;;9.10;;
3789;SDS011;1910;49.042;9.028;2022-08-26T04:58:52;11.40;;;8.47;;
3789;SDS011;1910;49.042;9.028;2022-08-26T05:01:18;9.13;;;8.17;;
3789;SDS011;1910;49.042;9.028;2022-08-26T05:03:44;12.70;;;9.50;;
3789;SDS011;1910;49.042;9.028;2022-08-26T05:06:10;14.20;;;10.23;;
3789;SDS011;1910;49.042;9.028;2022-08-26T05:08:36;21.77;;;11.03;;
3789;SDS011;1910;49.042;9.028;2022-08-26T05:11:03;16.97;;;9.97;;
3789;SDS011;1910;49.042;9.028;2022-08-26T05:13:29;14.60;;;9.20;;
3789;SDS011;1910;49.042;9.028;2022-08-26T05:15:55;13.47;;;9.30;;
3789;SDS011;1910;49.042;9.028;2022-08-26T05:18:22;18.37;;;9.67;;
3789;SDS011;1910;49.042;9.028;2022-08-26T05:20:50;12.50;;;9.17;;
3789;SDS011;1910;49.042;9.028;2022-08-26T05:23:17;15.93;;;10.23;;
3789;SDS011;1910;49.042;9.028;2022-08-26T05:25:46;13.00;;;8.87;;
3789;SDS011;1910;49.042;9.028;2022-08-26T05:28:13;16.53;;;10.40;;
3789;SDS011;1910;49.042;9.028;2022-08-26T05:30:39;11.23;;;9.67;;
3789;SDS011;1910;49.042;9.028;2022-08-26T05:33:06;11.80;;;9.43;;
3789;SDS011;1910;49.042;9.028;2022-08-26T05:35:32;11.63;;;8.73;;
3789;SDS011;1910;49.042;9.028;2022-08-26T05:37:59;18.07;;;10.70;;
3789;SDS011;1910;49.042;9.028;2022-08-26T05:40:26;15.73;;;8.93;;
3789;SDS011;1910;49.042;9.028;2022-08-26T05:42:52;14.23;;;9.47;;
3789;SDS011;1910;49.042;9.028;2022-08-26T05:45:19;12.23;;;9.63;;
3789;SDS011;1910;49.042;9.028;2022-08-26T05:47:44;15.10;;;9.90;;
3789;SDS011;1910;49.042;9.028;2022-08-26T05:50:10;12.10;;;9.27;;
3789;SDS011;1910;49.042;9.028;2022-08-26T05:52:35;9.73;;;8.83;;
3789;SDS011;1910;49.042;9.028;2022-08-26T05:55:02;11.87;;;9.20;;
3789;SDS011;1910;49.042;9.028;2022-08-26T05:57:28;17.83;;;9.37;;
3789;SDS011;1910;49.042;9.028;2022-08-26T05:59:54;15.43;;;9.60;;
3789;SDS011;1910;49.042;9.028;2022-08-26T06:02:20;10.73;;;9.60;;
3789;SDS011;1910;49.042;9.028;2022-08-26T06:04:46;11.83;;;9.60;;
3789;SDS011;1910;49.042;9.028;2022-08-26T06:07:11;11.37;;;8.83;;
3789;SDS011;1910;49.042;9.028;2022-08-26T06:09:37;10.40;;;7.70;;
3789;SDS011;1910;49.042;9.028;2022-08-26T06:12:03;11.23;;;9.10;;
3789;SDS011;1910;49.042;9.028;2022-08-26T06:14:29;10.27;;;9.20;;
3789;SDS011;1910;49.042;9.028;2022-08-26T06:16:55;13.33;;;9.40;;
3789;SDS011;1910;49.042;9.028;2022-08-26T06:19:21;9.30;;;8.43;;
3789;SDS011;1910;49.042;9.028;2022-08-26T06:21:47;40.67;;;10.90;;
3789;SDS011;1910;49.042;9.028;2022-08-26T06:24:14;13.53;;;9.90;;
3789;SDS011;1910;49.042;9.028;2022-08-26T06:27:00;11.67;;;9.07;;
3789;SDS011;1910;49.042;9.028;2022-08-26T06:29:29;13.07;;;10.13;;
3789;SDS011;1910;49.042;9.028;2022-08-26T06:31:58;12.17;;;10.00;;
3789;SDS011;1910;49.042;9.028;2022-08-26T06:34:25;12.73;;;11.40;;
3789;SDS011;1910;49.042;9.028;2022-08-26T06:36:54;15.93;;;11.13;;
3789;SDS011;1910;49.042;9.028;2022-08-26T06:39:21;13.20;;;10.00;;
3789;SDS011;1910;49.042;9.028;2022-08-26T06:41:47;15.43;;;10.97;;
3789;SDS011;1910;49.042;9.028;2022-08-26T06:44:13;14.67;;;11.83;;
3789;SDS011;1910;49.042;9.028;2022-08-26T06:46:40;26.03;;;12.40;;
3789;SDS011;1910;49.042;9.028;2022-08-26T06:49:06;17.90;;;13.13;;
3789;SDS011;1910;49.042;9.028;2022-08-26T06:51:33;23.53;;;12.90;;
3789;SDS011;1910;49.042;9.028;2022-08-26T06:54:00;18.20;;;11.90;;
3789;SDS011;1910;49.042;9.028;2022-08-26T06:56:30;19.77;;;13.40;;
3789;SDS011;1910;49.042;9.028;2022-08-26T06:58:57;18.00;;;12.33;;
3789;SDS011;1910;49.042;9.028;2022-08-26T07:01:25;19.20;;;12.73;;
3789;SDS011;1910;49.042;9.028;2022-08-26T07:03:53;15.20;;;12.90;;
3789;SDS011;1910;49.042;9.028;2022-08-26T07:06:21;15.03;;;13.43;;
3789;SDS011;1910;49.042;9.028;2022-08-26T07:08:48;15.90;;;13.00;;
3789;SDS011;1910;49.042;9.028;2022-08-26T07:11:15;21.33;;;13.23;;
3789;SDS011;1910;49.042;9.028;2022-08-26T07:13:42;17.20;;;12.90;;
3789;SDS011;1910;49.042;9.028;2022-08-26T07:16:09;18.10;;;12.63;;
3789;SDS011;1910;49.042;9.028;2022-08-26T07:18:36;16.50;;;12.80;;
3789;SDS011;1910;49.042;9.028;2022-08-26T07:21:04;15.50;;;13.60;;
3789;SDS011;1910;49.042;9.028;2022-08-26T07:23:31;15.30;;;12.77;;
3789;SDS011;1910;49.042;9.028;2022-08-26T07:25:58;17.60;;;13.37;;
3789;SDS011;1910;49.042;9.028;2022-08-26T07:28:24;16.17;;;12.63;;
3789;SDS011;1910;49.042;9.028;2022-08-26T07:30:49;13.90;;;12.13;;
3789;SDS011;1910;49.042;9.028;2022-08-26T07:33:15;19.70;;;14.70;;
3789;SDS011;1910;49.042;9.028;2022-08-26T07:35:41;28.23;;;14.30;;
3789;SDS011;1910;49.042;9.028;2022-08-26T07:38:08;35.53;;;14.97;;
3789;SDS011;1910;49.042;9.028;2022-08-26T07:40:34;22.37;;;13.90;;
3789;SDS011;1910;49.042;9.028;2022-08-26T07:42:59;23.40;;;14.47;;
3789;SDS011;1910;49.042;9.028;2022-08-26T07:45:25;14.33;;;13.13;;
3789;SDS011;1910;49.042;9.028;2022-08-26T07:47:50;19.70;;;15.23;;
3789;SDS011;1910;49.042;9.028;2022-08-26T07:50:16;19.67;;;14.00;;
3789;SDS011;1910;49.042;9.028;2022-08-26T07:52:42;17.37;;;15.50;;
3789;SDS011;1910;49.042;9.028;2022-08-26T07:55:08;16.87;;;15.20;;
3789;SDS011;1910;49.042;9.028;2022-08-26T07:57:34;21.93;;;15.67;;
3789;SDS011;1910;49.042;9.028;2022-08-26T08:00:00;17.67;;;15.70;;
3789;SDS011;1910;49.042;9.028;2022-08-26T08:02:28;23.13;;;14.40;;
3789;SDS011;1910;49.042;9.028;2022-08-26T08:04:54;14.70;;;13.27;;
3789;SDS011;1910;49.042;9.028;2022-08-26T08:07:20;17.33;;;12.60;;
3789;SDS011;1910;49.042;9.028;2022-08-26T08:09:46;19.47;;;12.37;;
3789;SDS011;1910;49.042;9.028;2022-08-26T08:12:15;16.87;;;11.00;;
3789;SDS011;1910;49.042;9.028;2022-08-26T08:14:42;16.20;;;11.37;;
3789;SDS011;1910;49.042;9.028;2022-08-26T08:17:09;18.17;;;11.67;;
3789;SDS011;1910;49.042;9.028;2022-08-26T08:19:35;15.27;;;11.17;;
3789;SDS011;1910;49.042;9.028;2022-08-26T08:22:01;13.93;;;10.87;;
3789;SDS011;1910;49.042;9.028;2022-08-26T08:24:29;21.67;;;10.10;;
3789;SDS011;1910;49.042;9.028;2022-08-26T08:26:55;12.20;;;10.47;;
3789;SDS011;1910;49.042;9.028;2022-08-26T08:29:20;12.30;;;11.10;;
3789;SDS011;1910;49.042;9.028;2022-08-26T08:31:46;11.60;;;10.40;;
3789;SDS011;1910;49.042;9.028;2022-08-26T08:34:12;20.73;;;10.83;;
3789;SDS011;1910;49.042;9.028;2022-08-26T08:36:38;11.33;;;9.60;;
3789;SDS011;1910;49.042;9.028;2022-08-26T08:39:04;17.27;;;10.87;;
3789;SDS011;1910;49.042;9.028;2022-08-26T08:41:36;13.17;;;11.77;;
3789;SDS011;1910;49.042;9.028;2022-08-26T08:44:14;13.10;;;11.10;;
3789;SDS011;1910;49.042;9.028;2022-08-26T08:46:43;20.10;;;10.83;;
3789;SDS011;1910;49.042;9.028;2022-08-26T08:49:12;16.43;;;11.03;;
3789;SDS011;1910;49.042;9.028;2022-08-26T08:54:26;15.70;;;11.73;;
3789;SDS011;1910;49.042;9.028;2022-08-26T08:57:14;22.10;;;11.30;;
3789;SDS011;1910;49.042;9.028;2022-08-26T08:59:48;13.60;;;12.00;;
3789;SDS011;1910;49.042;9.028;2022-08-26T09:02:29;17.77;;;11.57;;
3789;SDS011;1910;49.042;9.028;2022-08-26T09:10:32;15.77;;;12.20;;
3789;SDS011;1910;49.042;9.028;2022-08-26T09:12:58;12.37;;;11.27;;
3789;SDS011;1910;49.042;9.028;2022-08-26T09:15:31;17.87;;;12.50;;
3789;SDS011;1910;49.042;9.028;2022-08-26T09:18:18;15.43;;;12.20;;
3789;SDS011;1910;49.042;9.028;2022-08-26T09:20:55;12.80;;;11.60;;
3789;SDS011;1910;49.042;9.028;2022-08-26T09:23:24;14.53;;;10.70;;
3789;SDS011;1910;49.042;9.028;2022-08-26T09:26:44;12.53;;;11.10;;
3789;SDS011;1910;49.042;9.028;2022-08-26T09:28:40;11.70;;;10.50;;
3789;SDS011;1910;49.042;9.028;2022-08-26T09:31:10;16.07;;;11.40;;
3789;SDS011;1910;49.042;9.028;2022-08-26T09:33:44;15.70;;;11.47;;
3789;SDS011;1910;49.042;9.028;2022-08-26T09:38:50;14.60;;;9.50;;
3789;SDS011;1910;49.042;9.028;2022-08-26T09:41:24;14.60;;;10.93;;
3789;SDS011;1910;49.042;9.028;2022-08-26T09:46:45;15.50;;;8.87;;
3789;SDS011;1910;49.042;9.028;2022-08-26T09:49:22;14.07;;;9.00;;
3789;SDS011;1910;49.042;9.028;2022-08-26T09:54:38;11.67;;;8.10;;
3789;SDS011;1910;49.042;9.028;2022-08-26T09:59:42;13.10;;;8.30;;
3789;SDS011;1910;49.042;9.028;2022-08-26T10:04:52;14.17;;;8.10;;
3789;SDS011;1910;49.042;9.028;2022-08-26T10:07:38;11.43;;;7.40;;
3789;SDS011;1910;49.042;9.028;2022-08-26T10:10:05;14.50;;;7.83;;
3789;SDS011;1910;49.042;9.028;2022-08-26T10:12:35;7.80;;;7.03;;
3789;SDS011;1910;49.042;9.028;2022-08-26T10:15:07;11.73;;;7.67;;
3789;SDS011;1910;49.042;9.028;2022-08-26T10:17:35;15.63;;;8.47;;
3789;SDS011;1910;49.042;9.028;2022-08-26T10:20:16;8.10;;;7.30;;
3789;SDS011;1910;49.042;9.028;2022-08-26T10:25:22;11.03;;;7.60;;
3789;SDS011;1910;49.042;9.028;2022-08-26T10:27:59;10.73;;;9.33;;
3789;SDS011;1910;49.042;9.028;2022-08-26T10:30:38;12.70;;;7.97;;
3789;SDS011;1910;49.042;9.028;2022-08-26T10:33:09;12.20;;;8.73;;
3789;SDS011;1910;49.042;9.028;2022-08-26T10:35:40;10.30;;;8.63;;
3789;SDS011;1910;49.042;9.028;2022-08-26T10:38:13;14.03;;;8.87;;
3789;SDS011;1910;49.042;9.028;2022-08-26T10:43:09;12.37;;;8.00;;
3789;SDS011;1910;49.042;9.028;2022-08-26T10:45:46;10.70;;;7.80;;
3789;SDS011;1910;49.042;9.028;2022-08-26T10:48:23;15.70;;;9.40;;
3789;SDS011;1910;49.042;9.028;2022-08-26T10:50:56;9.50;;;7.67;;
3789;SDS011;1910;49.042;9.028;2022-08-26T10:53:24;12.50;;;9.53;;
3789;SDS011;1910;49.042;9.028;2022-08-26T10:55:58;13.80;;;8.00;;
3789;SDS011;1910;49.042;9.028;2022-08-26T10:58:50;13.93;;;9.50;;
3789;SDS011;1910;49.042;9.028;2022-08-26T11:01:20;10.77;;;8.60;;
3789;SDS011;1910;49.042;9.028;2022-08-26T11:04:13;12.97;;;8.13;;
3789;SDS011;1910;49.042;9.028;2022-08-26T11:06:46;15.30;;;8.90;;
3789;SDS011;1910;49.042;9.028;2022-08-26T11:09:12;13.07;;;8.03;;
3789;SDS011;1910;49.042;9.028;2022-08-26T11:14:58;18.53;;;9.57;;
3789;SDS011;1910;49.042;9.028;2022-08-26T11:25:40;17.47;;;9.23;;
3789;SDS011;1910;49.042;9.028;2022-08-26T11:33:49;20.60;;;9.97;;
3789;SDS011;1910;49.042;9.028;2022-08-26T11:38:58;23.53;;;10.77;;
3789;SDS011;1910;49.042;9.028;2022-08-26T11:41:25;19.43;;;10.00;;
3789;SDS011;1910;49.042;9.028;2022-08-26T11:43:54;26.73;;;10.60;;
3789;SDS011;1910;49.042;9.028;2022-08-26T11:46:23;16.80;;;10.33;;
3789;SDS011;1910;49.042;9.028;2022-08-26T11:48:50;15.37;;;11.30;;
3789;SDS011;1910;49.042;9.028;2022-08-26T11:51:25;13.73;;;10.47;;
3789;SDS011;1910;49.042;9.028;2022-08-26T11:53:50;23.00;;;10.10;;
3789;SDS011;1910;49.042;9.028;2022-08-26T11:56:33;21.23;;;10.70;;
3789;SDS011;1910;49.042;9.028;2022-08-26T11:59:02;19.63;;;9.70;;
3789;SDS011;1910;49.042;9.028;2022-08-26T12:01:34;13.97;;;9.60;;
3789;SDS011;1910;49.042;9.028;2022-08-26T12:04:03;16.23;;;9.20;;
3789;SDS011;1910;49.042;9.028;2022-08-26T12:06:32;19.03;;;11.40;;
3789;SDS011;1910;49.042;9.028;2022-08-26T12:09:20;15.43;;;11.00;;
3789;SDS011;1910;49.042;9.028;2022-08-26T12:12:13;12.50;;;9.80;;
3789;SDS011;1910;49.042;9.028;2022-08-26T12:14:45;20.50;;;10.43;;
3789;SDS011;1910;49.042;9.028;2022-08-26T12:17:26;20.73;;;11.10;;
3789;SDS011;1910;49.042;9.028;2022-08-26T12:19:51;19.73;;;10.37;;
3789;SDS011;1910;49.042;9.028;2022-08-26T12:24:59;15.47;;;9.10;;
3789;SDS011;1910;49.042;9.028;2022-08-26T12:27:30;11.17;;;8.80;;
3789;SDS011;1910;49.042;9.028;2022-08-26T12:32:35;21.57;;;9.23;;
3789;SDS011;1910;49.042;9.028;2022-08-26T12:35:05;28.90;;;10.50;;
3789;SDS011;1910;49.042;9.028;2022-08-26T12:37:33;19.93;;;10.50;;
3789;SDS011;1910;49.042;9.028;2022-08-26T12:42:51;15.40;;;9.10;;
3789;SDS011;1910;49.042;9.028;2022-08-26T12:47:53;17.10;;;9.53;;
3789;SDS011;1910;49.042;9.028;2022-08-26T12:50:22;13.33;;;9.67;;
3789;SDS011;1910;49.042;9.028;2022-08-26T12:55:37;14.80;;;8.47;;
3789;SDS011;1910;49.042;9.028;2022-08-26T12:58:12;13.20;;;9.00;;
3789;SDS011;1910;49.042;9.028;2022-08-26T13:03:26;10.60;;;8.87;;
3789;SDS011;1910;49.042;9.028;2022-08-26T13:08:54;15.20;;;8.47;;
3789;SDS011;1910;49.042;9.028;2022-08-26T13:14:05;14.57;;;8.00;;
3789;SDS011;1910;49.042;9.028;2022-08-26T13:16:33;14.57;;;8.73;;
3789;SDS011;1910;49.042;9.028;2022-08-26T13:19:00;16.33;;;8.50;;
3789;SDS011;1910;49.042;9.028;2022-08-26T13:21:32;20.20;;;8.80;;
3789;SDS011;1910;49.042;9.028;2022-08-26T13:24:02;13.60;;;7.93;;
3789;SDS011;1910;49.042;9.028;2022-08-26T13:26:33;17.53;;;7.37;;
3789;SDS011;1910;49.042;9.028;2022-08-26T13:28:59;13.70;;;7.97;;
3789;SDS011;1910;49.042;9.028;2022-08-26T13:31:26;15.40;;;9.43;;
3789;SDS011;1910;49.042;9.028;2022-08-26T13:33:54;14.37;;;9.23;;
3789;SDS011;1910;49.042;9.028;2022-08-26T13:36:20;15.70;;;9.77;;
3789;SDS011;1910;49.042;9.028;2022-08-26T13:38:46;17.20;;;8.63;;
3789;SDS011;1910;49.042;9.028;2022-08-26T13:41:12;17.33;;;8.90;;
3789;SDS011;1910;49.042;9.028;2022-08-26T13:43:38;16.47;;;9.20;;
3789;SDS011;1910;49.042;9.028;2022-08-26T13:46:04;17.50;;;9.13;;
3789;SDS011;1910;49.042;9.028;2022-08-26T13:48:30;10.73;;;8.60;;
3789;SDS011;1910;49.042;9.028;2022-08-26T13:50:57;10.50;;;8.27;;
3789;SDS011;1910;49.042;9.028;2022-08-26T13:53:24;12.40;;;8.00;;
3789;SDS011;1910;49.042;9.028;2022-08-26T13:55:50;14.57;;;8.40;;
3789;SDS011;1910;49.042;9.028;2022-08-26T13:58:15;16.77;;;9.77;;
3789;SDS011;1910;49.042;9.028;2022-08-26T14:00:41;14.20;;;8.83;;
3789;SDS011;1910;49.042;9.028;2022-08-26T14:03:07;14.93;;;9.20;;
3789;SDS011;1910;49.042;9.028;2022-08-26T14:05:33;10.93;;;8.83;;
3789;SDS011;1910;49.042;9.028;2022-08-26T14:07:59;17.40;;;8.10;;
3789;SDS011;1910;49.042;9.028;2022-08-26T14:10:25;19.80;;;8.57;;
3789;SDS011;1910;49.042;9.028;2022-08-26T14:12:51;12.80;;;8.53;;
3789;SDS011;1910;49.042;9.028;2022-08-26T14:15:17;11.23;;;8.43;;
3789;SDS011;1910;49.042;9.028;2022-08-26T14:17:44;14.67;;;8.33;;
3789;SDS011;1910;49.042;9.028;2022-08-26T14:20:12;14.40;;;8.90;;
3789;SDS011;1910;49.042;9.028;2022-08-26T14:22:41;10.33;;;8.73;;
3789;SDS011;1910;49.042;9.028;2022-08-26T14:25:09;10.57;;;8.10;;
3789;SDS011;1910;49.042;9.028;2022-08-26T14:27:36;10.10;;;7.87;;
3789;SDS011;1910;49.042;9.028;2022-08-26T14:30:02;13.10;;;9.50;;
3789;SDS011;1910;49.042;9.028;2022-08-26T14:32:28;12.77;;;8.80;;
3789;SDS011;1910;49.042;9.028;2022-08-26T14:34:56;8.53;;;7.63;;
3789;SDS011;1910;49.042;9.028;2022-08-26T14:37:21;12.00;;;8.40;;
3789;SDS011;1910;49.042;9.028;2022-08-26T14:39:47;11.33;;;7.77;;
3789;SDS011;1910;49.042;9.028;2022-08-26T14:42:13;15.00;;;8.07;;
3789;SDS011;1910;49.042;9.028;2022-08-26T14:44:41;11.17;;;7.90;;
3789;SDS011;1910;49.042;9.028;2022-08-26T14:47:09;17.80;;;8.50;;
3789;SDS011;1910;49.042;9.028;2022-08-26T14:49:35;12.17;;;8.43;;
3789;SDS011;1910;49.042;9.028;2022-08-26T14:52:01;9.90;;;8.90;;
3789;SDS011;1910;49.042;9.028;2022-08-26T14:54:26;10.97;;;8.30;;
3789;SDS011;1910;49.042;9.028;2022-08-26T14:56:54;11.83;;;8.87;;
3789;SDS011;1910;49.042;9.028;2022-08-26T15:01:59;8.90;;;7.97;;
3789;SDS011;1910;49.042;9.028;2022-08-26T15:04:25;11.53;;;7.90;;
3789;SDS011;1910;49.042;9.028;2022-08-26T15:06:52;18.80;;;10.20;;
3789;SDS011;1910;49.042;9.028;2022-08-26T15:09:19;11.70;;;7.80;;
3789;SDS011;1910;49.042;9.028;2022-08-26T15:11:45;11.30;;;9.13;;
3789;SDS011;1910;49.042;9.028;2022-08-26T15:14:11;13.10;;;8.50;;
3789;SDS011;1910;49.042;9.028;2022-08-26T15:16:36;12.70;;;8.47;;
3789;SDS011;1910;49.042;9.028;2022-08-26T15:19:03;14.00;;;8.00;;
3789;SDS011;1910;49.042;9.028;2022-08-26T15:21:29;16.30;;;8.60;;
3789;SDS011;1910;49.042;9.028;2022-08-26T15:23:56;9.47;;;7.00;;
3789;SDS011;1910;49.042;9.028;2022-08-26T15:26:23;9.43;;;8.17;;
3789;SDS011;1910;49.042;9.028;2022-08-26T15:28:48;11.23;;;7.67;;
3789;SDS011;1910;49.042;9.028;2022-08-26T15:31:14;15.03;;;8.20;;
3789;SDS011;1910;49.042;9.028;2022-08-26T15:33:40;11.67;;;7.77;;
3789;SDS011;1910;49.042;9.028;2022-08-26T15:36:06;14.80;;;8.03;;
3789;SDS011;1910;49.042;9.028;2022-08-26T15:38:34;12.13;;;8.40;;
3789;SDS011;1910;49.042;9.028;2022-08-26T15:41:02;8.17;;;6.97;;
3789;SDS011;1910;49.042;9.028;2022-08-26T15:43:29;11.77;;;7.80;;
3789;SDS011;1910;49.042;9.028;2022-08-26T15:45:55;12.47;;;8.40;;
3789;SDS011;1910;49.042;9.028;2022-08-26T15:48:21;9.17;;;7.30;;
3789;SDS011;1910;49.042;9.028;2022-08-26T15:50:49;7.40;;;6.70;;
3789;SDS011;1910;49.042;9.028;2022-08-26T15:53:20;7.03;;;5.90;;
3789;SDS011;1910;49.042;9.028;2022-08-26T15:55:46;12.70;;;7.17;;
3789;SDS011;1910;49.042;9.028;2022-08-26T15:58:12;39.57;;;9.17;;
3789;SDS011;1910;49.042;9.028;2022-08-26T16:00:38;10.53;;;6.47;;
3789;SDS011;1910;49.042;9.028;2022-08-26T16:03:04;14.60;;;6.30;;
3789;SDS011;1910;49.042;9.028;2022-08-26T16:05:39;16.60;;;6.93;;
3789;SDS011;1910;49.042;9.028;2022-08-26T16:08:07;13.77;;;5.70;;
3789;SDS011;1910;49.042;9.028;2022-08-26T16:10:35;8.20;;;4.90;;
3789;SDS011;1910;49.042;9.028;2022-08-26T16:13:02;7.43;;;5.80;;
3789;SDS011;1910;49.042;9.028;2022-08-26T16:15:28;12.87;;;4.30;;
3789;SDS011;1910;49.042;9.028;2022-08-26T16:17:57;26.53;;;4.80;;
3789;SDS011;1910;49.042;9.028;2022-08-26T16:20:25;7.07;;;4.00;;
3789;SDS011;1910;49.042;9.028;2022-08-26T16:22:51;8.07;;;4.63;;